Time;durP1;ratioP1;P1;durP2;ratioP2;P2;SDS_P1;SDS_P2;PMS_P1;PMS_P2;Temp;Humidity;BMP_temperature;BMP_pressure;BME280_temperature;BME280_humidity;BME280_pressure;Samples;Min_cycle;Max_cycle;Signal;HPM_P1;HPM_P2
2023/09/18 07:17:25;;;;;;;;;7.00;6.75;;;;;26.79;57.16;100284.19;5133988;27;45367;-58
2023/09/18 07:19:51;;;;;;;;;8.00;7.75;;;;;27.02;56.23;100280.38;5109049;27;45451;-58
2023/09/18 07:22:16;;;;;;;;;8.00;6.50;;;;;27.16;55.72;100266.81;5120278;27;52912;-58
2023/09/18 07:27:17;;;;;;;;;6.75;6.75;;;;;27.53;53.63;100293.41;5363961;22;46853;-58
2023/09/18 07:29:42;;;;;;;;;7.00;7.00;;;;;27.74;53.62;100288.84;5072963;28;58776;-53
2023/09/18 07:34:52;;;;;;;;;9.00;7.00;;;;;27.68;53.17;100286.84;5598776;22;46207;-54
2023/09/18 07:37:20;;;;;;;;;9.00;8.25;;;;;27.40;53.85;100286.66;5073596;27;47864;-53
2023/09/18 07:39:46;;;;;;;;;7.00;7.00;;;;;27.74;52.73;100301.75;5088022;27;45493;-54
2023/09/18 07:42:11;;;;;;;;;9.50;8.25;;;;;28.29;51.35;100295.66;5096323;27;45348;-53
2023/09/18 07:44:37;;;;;;;;;8.75;8.75;;;;;28.06;51.34;100289.44;5076030;27;45258;-53
2023/09/18 07:47:02;;;;;;;;;7.00;7.00;;;;;27.93;51.47;100297.53;5075405;27;46125;-55
2023/09/18 07:49:28;;;;;;;;;6.50;6.50;;;;;28.32;51.18;100291.69;5074405;28;45283;-56
2023/09/18 08:06:04;;;;;;;;;5.50;5.50;;;;;28.27;50.55;100295.00;5173102;27;45694;-56
2023/09/18 08:08:30;;;;;;;;;3.75;3.50;;;;;28.82;49.38;100307.25;5157496;27;45450;-55
2023/09/18 08:13:31;;;;;;;;;6.25;6.25;;;;;28.76;48.72;100296.97;5219773;22;46208;-54
2023/09/18 08:15:56;;;;;;;;;7.25;5.00;;;;;28.56;48.75;100300.41;5019487;28;46269;-55
2023/09/18 08:18:21;;;;;;;;;7.75;7.75;;;;;28.31;48.65;100303.75;5013248;28;56522;-56
2023/09/18 08:23:22;;;;;;;;;5.00;5.00;;;;;28.55;48.22;100292.31;5234911;22;45444;-55
2023/09/18 08:25:50;;;;;;;;;6.75;6.75;;;;;27.92;49.19;100296.69;5031341;28;46243;-54
2023/09/18 08:28:16;;;;;;;;;8.00;7.00;;;;;28.29;49.01;100292.06;5034789;28;45249;-56
2023/09/18 08:30:44;;;;;;;;;5.50;4.25;;;;;28.51;48.23;100302.03;5031696;28;45354;-58
2023/09/18 08:33:10;;;;;;;;;8.00;7.00;;;;;28.79;47.40;100300.22;5033727;28;45329;-57
2023/09/18 08:35:35;;;;;;;;;5.50;5.50;;;;;28.72;47.39;100314.97;5034598;28;45344;-57
2023/09/18 08:38:00;;;;;;;;;5.75;5.75;;;;;28.69;47.38;100307.09;5034500;28;56977;-59
2023/09/18 08:40:26;;;;;;;;;12.25;6.00;;;;;28.35;48.33;100311.41;5035445;28;45349;-57
2023/09/18 08:42:55;;;;;;;;;5.25;5.25;;;;;28.48;47.53;100302.44;5035406;28;45344;-58
2023/09/18 08:45:27;;;;;;;;;7.25;6.75;;;;;28.59;47.68;100294.47;5037600;28;45913;-57
2023/09/18 08:47:54;;;;;;;;;8.00;8.00;;;;;28.73;47.22;100306.50;5035221;28;45248;-58
2023/09/18 08:50:20;;;;;;;;;7.00;5.75;;;;;28.59;46.92;100307.41;5035423;28;45233;-55
2023/09/18 08:52:47;;;;;;;;;6.25;6.25;;;;;28.92;47.23;100305.84;5046423;28;45641;-56
2023/09/18 08:55:13;;;;;;;;;8.75;6.00;;;;;29.11;45.95;100309.81;5034596;28;46461;-57
2023/09/18 08:57:41;;;;;;;;;6.75;5.75;;;;;29.06;46.03;100317.00;5025655;28;45297;-56
2023/09/18 09:00:07;;;;;;;;;5.75;5.75;;;;;29.00;46.02;100317.81;5035183;28;45283;-56
2023/09/18 09:02:33;;;;;;;;;4.00;4.00;;;;;28.96;45.87;100322.84;5034298;28;45523;-58
2023/09/18 09:04:59;;;;;;;;;7.25;5.75;;;;;28.94;46.15;100313.91;5032788;28;47455;-57
2023/09/18 09:07:26;;;;;;;;;6.50;5.00;;;;;28.92;45.88;100311.34;5021001;28;45307;-57
2023/09/18 09:09:51;;;;;;;;;4.75;4.75;;;;;29.09;46.21;100302.81;5021438;28;45414;-57
2023/09/18 09:12:53;;;;;;;;;6.75;6.00;;;;;28.73;46.87;100308.41;5021454;28;45333;-55
2023/09/18 09:15:20;;;;;;;;;8.75;7.50;;;;;29.22;46.62;100300.13;5021242;28;46144;-57
2023/09/18 09:17:46;;;;;;;;;9.25;8.75;;;;;29.44;45.71;100303.69;5020818;28;45336;-57
2023/09/18 09:20:13;;;;;;;;;5.50;5.50;;;;;29.17;45.73;100311.78;5021557;28;45376;-57
2023/09/18 09:22:40;;;;;;;;;5.50;3.50;;;;;29.18;45.72;100316.22;5020231;28;45325;-71
2023/09/18 09:25:22;;;;;;;;;6.25;6.25;;;;;29.33;45.10;100311.47;5007888;28;46557;-70
2023/09/18 09:27:48;;;;;;;;;6.00;4.50;;;;;29.49;44.67;100296.50;5021124;28;45428;-70
2023/09/18 09:30:21;;;;;;;;;5.75;5.75;;;;;29.62;44.61;100310.38;5020167;28;45895;-70
2023/09/18 09:32:49;;;;;;;;;4.50;4.50;;;;;29.46;44.46;100309.88;5021351;28;45527;-70
2023/09/18 09:35:33;;;;;;;;;6.50;5.00;;;;;29.60;44.34;100312.50;5019628;28;47021;-70
2023/09/18 09:38:15;;;;;;;;;5.25;5.25;;;;;29.82;43.91;100309.63;5016612;28;45470;-71
2023/09/18 09:40:43;;;;;;;;;3.00;3.00;;;;;29.59;44.24;100310.81;5020805;28;45198;-70
2023/09/18 09:43:10;;;;;;;;;6.00;6.00;;;;;29.69;44.53;100304.88;5020919;28;46015;-70
2023/09/18 09:45:36;;;;;;;;;5.25;5.25;;;;;29.68;44.16;100319.78;5020912;28;45404;-70
2023/09/18 09:48:06;;;;;;;;;6.50;5.25;;;;;29.84;43.85;100316.66;5020981;28;45579;-70
2023/09/18 09:50:32;;;;;;;;;4.50;4.50;;;;;29.73;43.56;100320.00;5021161;28;45451;-70
2023/09/18 09:52:59;;;;;;;;;5.25;4.00;;;;;29.52;43.50;100309.91;5020472;28;45333;-70
2023/09/18 09:55:30;;;;;;;;;5.25;5.25;;;;;29.93;43.35;100317.34;5017104;28;45447;-71
2023/09/18 09:58:00;;;;;;;;;6.00;5.50;;;;;29.87;43.68;100327.28;5026873;28;45237;-70
2023/09/18 10:00:32;;;;;;;;;5.25;3.50;;;;;30.09;42.76;100328.06;5025205;28;45359;-69
2023/09/18 10:03:00;;;;;;;;;2.75;2.75;;;;;30.08;43.07;100318.94;5020760;28;45513;-69
2023/09/18 10:05:30;;;;;;;;;5.00;5.00;;;;;30.08;43.39;100321.69;5019994;28;46309;-70
2023/09/18 10:08:00;;;;;;;;;5.25;3.50;;;;;30.21;42.74;100326.41;5020156;28;45383;-71
2023/09/18 10:10:32;;;;;;;;;4.00;4.00;;;;;29.99;42.99;100322.06;5019026;28;45373;-71
2023/09/18 10:13:04;;;;;;;;;5.50;4.25;;;;;30.16;42.21;100320.66;5020053;28;45467;-69
2023/09/18 10:15:33;;;;;;;;;3.25;3.25;;;;;30.12;41.80;100321.25;5019944;28;46531;-70
2023/09/18 10:18:00;;;;;;;;;5.25;5.25;;;;;30.32;42.05;100317.50;5019111;28;45305;-70
2023/09/18 10:20:27;;;;;;;;;5.00;5.00;;;;;30.14;41.68;100333.81;5019002;28;45337;-70
2023/09/18 10:22:56;;;;;;;;;3.75;3.75;;;;;29.84;42.29;100322.19;5019588;28;45518;-70
2023/09/18 10:25:24;;;;;;;;;6.25;4.25;;;;;30.36;41.60;100323.47;5027526;28;45257;-70
2023/09/18 10:27:53;;;;;;;;;3.00;3.00;;;;;30.20;41.51;100308.09;5002123;28;45533;-70
2023/09/18 10:30:22;;;;;;;;;3.75;3.75;;;;;30.12;42.30;100329.56;5019040;28;45241;-69
2023/09/18 10:32:49;;;;;;;;;4.25;3.75;;;;;30.50;41.47;100325.22;5020380;28;45372;-70
2023/09/18 10:35:15;;;;;;;;;4.75;4.00;;;;;30.71;40.98;100319.50;5019781;28;46307;-70
2023/09/18 10:37:45;;;;;;;;;3.50;3.50;;;;;30.30;40.82;100322.38;5019768;28;45344;-70
2023/09/18 10:40:11;;;;;;;;;3.75;3.75;;;;;30.76;40.76;100328.06;5019751;28;45337;-70
2023/09/18 10:42:39;;;;;;;;;4.25;4.25;;;;;30.58;40.69;100324.19;5020036;28;45345;-70
2023/09/18 10:45:10;;;;;;;;;4.00;4.00;;;;;29.99;41.25;100335.91;5019596;28;46115;-70
2023/09/18 10:47:38;;;;;;;;;4.00;3.75;;;;;30.28;40.59;100329.22;5020009;28;45237;-72
2023/09/18 10:50:04;;;;;;;;;4.25;4.25;;;;;30.59;40.10;100312.91;5019936;28;45269;-71
2023/09/18 10:52:30;;;;;;;;;3.00;3.00;;;;;31.02;40.39;100320.81;5032060;28;45455;-70
2023/09/18 10:54:55;;;;;;;;;3.50;3.50;;;;;31.02;39.59;100318.91;5020084;28;45329;-70
2023/09/18 10:57:21;;;;;;;;;3.75;3.75;;;;;31.26;39.39;100322.94;5019958;28;45361;-71
2023/09/18 10:59:47;;;;;;;;;8.00;4.00;;;;;31.40;39.12;100323.78;5020212;28;45316;-71
2023/09/18 11:02:17;;;;;;;;;4.75;4.75;;;;;31.63;38.81;100323.34;5020109;28;45403;-70
2023/09/18 11:04:44;;;;;;;;;3.50;3.50;;;;;32.03;37.92;100324.03;5019715;28;46211;-63
2023/09/18 11:07:19;;;;;;;;;2.75;2.75;;;;;32.17;36.74;100325.72;5020991;28;45293;-63
2023/09/18 11:09:45;;;;;;;;;6.00;5.00;;;;;32.55;36.97;100329.34;5019340;28;45423;-63
2023/09/18 11:12:14;;;;;;;;;4.00;4.00;;;;;32.53;37.36;100325.06;5019630;28;45480;-63
2023/09/18 11:14:49;;;;;;;;;5.75;4.25;;;;;32.34;36.79;100307.47;5019928;28;45260;-61
2023/09/18 11:17:33;;;;;;;;;4.00;3.75;;;;;32.89;36.77;100329.97;5019267;28;45307;-63
2023/09/18 11:20:18;;;;;;;;;3.00;3.00;;;;;32.78;36.45;100316.81;5019742;28;45413;-64
2023/09/18 11:22:57;;;;;;;;;3.75;3.75;;;;;32.84;35.84;100327.88;5018033;28;45547;-61
2023/09/18 11:25:30;;;;;;;;;3.00;3.00;;;;;32.79;36.40;100321.28;5019489;28;46115;-61
2023/09/18 11:27:55;;;;;;;;;3.00;3.00;;;;;32.64;36.14;100321.59;5018717;28;45246;-61
2023/09/18 11:30:21;;;;;;;;;4.50;4.00;;;;;32.19;36.47;100313.31;5022107;28;45262;-61
2023/09/18 11:32:47;;;;;;;;;4.75;4.75;;;;;32.82;36.14;100318.94;5019190;28;45394;-61
2023/09/18 11:35:13;;;;;;;;;2.75;2.75;;;;;33.28;35.66;100320.47;5017110;28;46218;-61
2023/09/18 11:37:39;;;;;;;;;5.00;3.25;;;;;33.04;35.36;100319.38;5018819;28;45457;-60
2023/09/18 11:40:08;;;;;;;;;4.00;4.00;;;;;33.49;34.17;100317.28;5019313;28;45394;-62
2023/09/18 11:42:33;;;;;;;;;1.00;1.00;;;;;33.41;34.29;100312.88;5019187;28;45400;-61
2023/09/18 11:44:59;;;;;;;;;3.00;3.00;;;;;33.56;33.52;100309.69;5018911;28;46435;-61
2023/09/18 11:47:27;;;;;;;;;3.50;3.00;;;;;33.94;32.98;100311.44;5018602;28;45246;-61
2023/09/18 11:50:02;;;;;;;;;3.00;3.00;;;;;34.50;32.79;100299.97;5019497;28;45349;-61
2023/09/18 11:52:29;;;;;;;;;3.50;3.50;;;;;34.26;33.11;100309.31;5018952;28;45368;-60
2023/09/18 11:54:59;;;;;;;;;2.50;2.50;;;;;34.68;32.39;100285.97;5018502;28;47375;-61
2023/09/18 11:57:25;;;;;;;;;4.25;4.25;;;;;34.92;31.87;100301.66;5019163;28;45266;-60
2023/09/18 11:59:52;;;;;;;;;3.00;3.00;;;;;34.48;31.95;100291.00;5018299;28;45308;-60
2023/09/18 12:02:38;;;;;;;;;4.50;3.00;;;;;35.25;31.82;100295.53;5018617;28;45328;-59
2023/09/18 12:05:17;;;;;;;;;3.25;3.00;;;;;34.73;31.76;100283.34;5018953;28;47376;-63
2023/09/18 12:07:45;;;;;;;;;3.50;3.50;;;;;34.93;31.93;100305.31;5018357;28;45249;-60
2023/09/18 12:10:12;;;;;;;;;3.00;3.00;;;;;35.49;30.97;100290.78;5018716;28;45341;-60
2023/09/18 12:12:38;;;;;;;;;2.50;2.50;;;;;35.34;30.46;100307.19;5018374;28;45356;-60
2023/09/18 12:15:04;;;;;;;;;2.00;2.00;;;;;36.35;29.82;100302.97;5018924;28;45376;-60
2023/09/18 12:17:30;;;;;;;;;2.00;2.00;;;;;35.89;29.57;100295.63;5018859;28;45366;-60
2023/09/18 12:19:55;;;;;;;;;2.00;2.00;;;;;36.93;29.14;100283.09;5019230;28;45255;-60
2023/09/18 12:22:29;;;;;;;;;4.00;4.00;;;;;37.60;27.70;100307.41;5018207;28;45310;-60
2023/09/18 12:25:12;;;;;;;;;4.00;3.00;;;;;38.29;26.81;100293.72;5018840;28;46473;-59
2023/09/18 12:27:37;;;;;;;;;1.00;1.00;;;;;38.70;25.89;100287.50;5017723;28;45459;-61
2023/09/18 12:30:04;;;;;;;;;4.00;3.00;;;;;39.00;25.37;100277.66;5016953;28;45491;-61
2023/09/18 12:32:32;;;;;;;;;2.00;2.00;;;;;39.24;24.56;100271.38;5018293;28;45542;-59
2023/09/18 12:34:58;;;;;;;;;1.00;1.00;;;;;39.86;24.71;100267.00;5001170;28;47289;-65
2023/09/18 12:37:23;;;;;;;;;1.00;1.00;;;;;39.34;23.97;100277.06;5018060;28;45373;-69
2023/09/18 12:39:51;;;;;;;;;2.00;2.00;;;;;38.51;24.92;100275.81;5019222;28;45211;-69
2023/09/18 12:42:18;;;;;;;;;2.00;2.00;;;;;37.80;26.17;100305.72;5022060;28;45313;-70
2023/09/18 12:44:47;;;;;;;;;3.00;3.00;;;;;37.67;26.79;100289.34;5022355;28;45726;-69
2023/09/18 12:47:12;;;;;;;;;1.00;1.00;;;;;35.51;28.96;100283.03;5021462;28;45379;-69
2023/09/18 12:49:39;;;;;;;;;3.00;2.00;;;;;35.26;29.46;100296.38;5021336;28;45325;-69
2023/09/18 12:52:07;;;;;;;;;2.00;2.00;;;;;35.54;29.53;100302.06;5021294;28;45878;-69
2023/09/18 12:54:40;;;;;;;;;2.33;2.33;;;;;35.51;29.44;100287.75;5021775;28;46206;-71
2023/09/18 12:57:07;;;;;;;;;4.00;3.00;;;;;36.44;28.62;100286.66;5021106;28;45233;-60
2023/09/18 12:59:35;;;;;;;;;0.75;0.75;;;;;37.18;27.75;100285.47;5021072;28;45316;-61
2023/09/18 13:02:04;;;;;;;;;2.67;2.67;;;;;38.78;27.13;100289.81;5021148;28;45531;-61
2023/09/18 13:04:30;;;;;;;;;2.33;2.33;;;;;39.18;25.22;100269.69;5021543;28;45301;-61
2023/09/18 13:07:14;;;;;;;;;2.00;2.00;;;;;39.49;25.28;100275.50;5021412;28;45250;-60
2023/09/18 13:09:40;;;;;;;;;1.67;1.67;;;;;40.32;24.67;100276.47;5020991;28;45474;-60
2023/09/18 13:12:07;;;;;;;;;2.00;2.00;;;;;40.15;24.13;100284.25;5021119;28;45485;-60
2023/09/18 13:15:12;;;;;;;;;4.00;2.33;;;;;41.34;23.56;100271.75;5020276;28;45377;-60
2023/09/18 13:17:45;;;;;;;;;1.33;1.00;;;;;40.91;21.99;100267.56;5021404;28;45503;-61
2023/09/18 13:20:24;;;;;;;;;4.00;2.67;;;;;40.59;23.04;100256.53;5021590;28;45332;-61
2023/09/18 13:22:51;;;;;;;;;2.33;2.33;;;;;40.19;23.22;100269.38;5021023;28;46037;-60
2023/09/18 13:25:23;;;;;;;;;2.00;2.00;;;;;39.88;23.91;100279.66;5020713;28;45405;-61
2023/09/18 13:27:51;;;;;;;;;2.67;2.67;;;;;39.59;23.24;100273.59;5021494;28;45520;-60
2023/09/18 13:30:21;;;;;;;;;2.00;2.00;;;;;39.37;23.85;100274.84;5020055;28;45372;-61
2023/09/18 13:32:50;;;;;;;;;1.00;1.00;;;;;40.12;23.08;100282.84;5020942;28;45300;-61
2023/09/18 13:35:17;;;;;;;;;2.00;2.00;;;;;40.28;22.04;100281.78;5021071;28;45361;-60
2023/09/18 13:37:43;;;;;;;;;1.33;1.33;;;;;39.81;22.08;100276.25;5003116;28;45805;-61
2023/09/18 13:40:10;;;;;;;;;0.00;0.00;;;;;40.57;22.17;100273.69;5020496;28;45286;-61
2023/09/18 13:42:37;;;;;;;;;1.33;1.00;;;;;40.59;21.18;100274.25;5020555;28;45336;-61
2023/09/18 13:45:04;;;;;;;;;1.00;1.00;;;;;41.09;20.89;100275.41;5021000;28;45369;-60
2023/09/18 13:47:30;;;;;;;;;2.00;0.33;;;;;41.82;20.52;100282.31;5021112;28;45274;-61
2023/09/18 13:49:59;;;;;;;;;4.00;2.00;;;;;41.65;19.84;100286.59;5021166;28;45309;-61
2023/09/18 13:52:29;;;;;;;;;2.33;1.00;;;;;42.39;19.88;100275.28;5020286;28;45745;-63
2023/09/18 13:54:55;;;;;;;;;0.33;0.33;;;;;42.76;19.01;100279.56;5020955;28;45436;-62
2023/09/18 13:57:21;;;;;;;;;1.00;1.00;;;;;41.78;20.09;100286.81;5021257;28;45419;-61
2023/09/18 13:59:48;;;;;;;;;0.33;0.33;;;;;42.33;19.79;100275.59;5021130;28;45332;-61
2023/09/18 14:02:14;;;;;;;;;0.00;0.00;;;;;41.85;20.41;100283.72;5020709;28;45887;-60
2023/09/18 14:04:39;;;;;;;;;0.67;0.67;;;;;42.13;20.33;100279.38;5020733;28;46414;-62
2023/09/18 14:07:09;;;;;;;;;1.00;1.00;;;;;42.73;19.80;100277.31;5020844;28;45287;-61
2023/09/18 14:09:35;;;;;;;;;2.33;1.33;;;;;41.78;20.40;100278.38;5021008;28;45293;-64
2023/09/18 14:12:07;;;;;;;;;1.00;1.00;;;;;41.86;19.98;100279.75;5020474;28;45337;-62
2023/09/18 14:14:33;;;;;;;;;1.00;1.00;;;;;40.54;21.11;100279.88;5020322;28;46964;-61
2023/09/18 14:16:58;;;;;;;;;1.00;1.00;;;;;40.52;21.14;100276.47;5020677;28;45374;-62
2023/09/18 14:19:24;;;;;;;;;1.33;1.33;;;;;39.68;21.98;100285.16;5020667;28;45435;-61
2023/09/18 14:21:49;;;;;;;;;0.33;0.33;;;;;40.11;22.03;100286.75;5020105;28;45477;-62
2023/09/18 14:24:17;;;;;;;;;1.00;0.67;;;;;40.17;21.57;100280.03;5020164;28;45391;-61
2023/09/18 14:26:43;;;;;;;;;1.00;1.00;;;;;40.15;21.42;100276.69;5020787;28;45364;-60
2023/09/18 14:29:09;;;;;;;;;2.00;1.00;;;;;40.48;21.47;100275.38;5020521;28;45344;-61
2023/09/18 14:31:38;;;;;;;;;2.00;1.67;;;;;40.30;21.16;100284.31;5019062;28;45436;-61
2023/09/18 14:34:05;;;;;;;;;0.00;0.00;;;;;41.10;21.51;100268.66;5019661;28;57696;-61
2023/09/18 14:36:32;;;;;;;;;2.33;0.67;;;;;41.31;20.36;100275.13;5019391;28;45402;-62
2023/09/18 14:38:57;;;;;;;;;1.00;1.00;;;;;41.77;20.54;100275.88;5020307;28;45373;-62
2023/09/18 14:41:24;;;;;;;;;1.33;1.00;;;;;41.84;19.80;100271.59;5007424;28;45633;-61
2023/09/18 14:43:50;;;;;;;;;2.33;1.33;;;;;40.71;21.08;100269.22;5023334;28;45667;-61
2023/09/18 14:46:15;;;;;;;;;1.00;1.00;;;;;39.37;22.41;100270.09;5027631;28;57851;-64
2023/09/18 14:48:40;;;;;;;;;1.00;1.00;;;;;38.68;22.95;100277.66;5019635;28;57000;-60
2023/09/18 14:51:07;;;;;;;;;0.00;0.00;;;;;37.86;24.13;100287.88;5020119;28;45488;-62
2023/09/18 14:53:32;;;;;;;;;0.75;0.25;;;;;37.68;24.40;100279.84;5019475;28;46181;-63
2023/09/18 14:55:58;;;;;;;;;3.00;1.00;;;;;36.75;25.15;100272.16;5020038;28;45268;-61
2023/09/18 14:58:23;;;;;;;;;2.00;2.00;;;;;36.84;25.24;100276.25;5020088;28;45265;-63
2023/09/18 15:00:53;;;;;;;;;1.00;1.00;;;;;35.85;25.95;100277.66;5019910;28;45955;-60
2023/09/18 15:03:18;;;;;;;;;1.00;1.00;;;;;35.36;26.63;100282.69;5019094;28;46404;-60
2023/09/18 15:05:43;;;;;;;;;1.00;1.00;;;;;35.49;26.35;100276.84;5020009;28;45243;-61
2023/09/18 15:08:09;;;;;;;;;2.00;2.00;;;;;34.97;27.51;100283.38;5018915;28;54875;-60
2023/09/18 15:10:34;;;;;;;;;1.00;1.00;;;;;34.69;27.76;100281.25;5019509;28;45561;-61
2023/09/18 15:13:00;;;;;;;;;1.00;1.00;;;;;34.46;27.59;100280.09;5009731;28;45510;-60
2023/09/18 15:15:25;;;;;;;;;2.00;2.00;;;;;33.98;28.66;100271.78;5019787;28;45376;-60
2023/09/18 15:17:54;;;;;;;;;2.00;2.00;;;;;33.93;28.85;100287.50;5018986;28;58390;-60
2023/09/18 15:20:23;;;;;;;;;1.00;1.00;;;;;33.61;28.99;100283.97;5018779;28;45447;-60
2023/09/18 15:22:49;;;;;;;;;1.00;1.00;;;;;33.92;28.76;100278.28;5018966;28;46237;-60
2023/09/18 15:25:16;;;;;;;;;1.00;1.00;;;;;33.80;29.49;100281.00;5019542;28;45308;-60
2023/09/18 15:27:41;;;;;;;;;1.00;1.00;;;;;33.73;29.58;100285.78;5017471;28;45337;-60
2023/09/18 15:30:07;;;;;;;;;2.00;2.00;;;;;33.72;29.77;100278.50;5018242;28;45483;-59
2023/09/18 15:32:55;;;;;;;;;2.00;2.00;;;;;33.57;30.00;100289.16;5018927;28;45276;-59
2023/09/18 15:35:24;;;;;;;;;2.25;2.25;;;;;33.05;31.21;100283.03;5018497;28;45386;-60
2023/09/18 15:37:50;;;;;;;;;2.00;2.00;;;;;33.30;31.33;100288.59;5015185;28;45459;-59
2023/09/18 15:40:18;;;;;;;;;1.75;1.75;;;;;33.46;32.15;100303.81;5017187;28;45237;-60
2023/09/18 15:42:45;;;;;;;;;2.50;2.25;;;;;32.96;33.17;100297.44;5010689;28;46220;-60
2023/09/18 15:45:11;;;;;;;;;2.75;1.00;;;;;32.98;33.05;100296.16;5016691;28;45380;-60
2023/09/18 15:47:40;;;;;;;;;1.75;1.75;;;;;32.99;33.32;100299.78;5018717;28;45358;-59
2023/09/18 15:50:06;;;;;;;;;2.50;2.50;;;;;33.08;34.14;100309.53;5006121;28;45258;-60
2023/09/18 15:52:32;;;;;;;;;3.00;1.50;;;;;33.01;35.08;100322.59;5008718;28;45483;-59
2023/09/18 15:55:01;;;;;;;;;2.25;2.25;;;;;32.63;36.28;100337.41;5016918;28;45567;-60
2023/09/18 15:57:29;;;;;;;;;2.50;2.25;;;;;32.99;35.54;100324.78;5024237;28;45300;-59
2023/09/18 15:59:55;;;;;;;;;2.00;2.00;;;;;33.04;35.84;100344.38;5019565;28;45523;-59
2023/09/18 16:02:21;;;;;;;;;3.25;1.75;;;;;32.40;37.41;100352.94;5018870;28;46085;-60
2023/09/18 16:04:46;;;;;;;;;4.00;2.25;;;;;32.67;36.38;100352.53;5018912;28;45389;-60
2023/09/18 16:07:12;;;;;;;;;3.50;3.00;;;;;32.97;36.04;100344.44;5019016;28;45167;-60
2023/09/18 16:09:38;;;;;;;;;2.75;2.00;;;;;33.24;35.37;100361.78;5019051;28;45554;-60
2023/09/18 16:12:04;;;;;;;;;2.00;2.00;;;;;33.40;34.79;100352.84;5018341;28;45373;-60
2023/09/18 16:14:29;;;;;;;;;2.50;2.50;;;;;33.12;34.71;100365.47;5018984;28;45471;-60
2023/09/18 16:16:54;;;;;;;;;2.00;2.00;;;;;33.23;34.52;100370.31;5021666;28;45495;-61
2023/09/18 16:19:20;;;;;;;;;1.25;1.25;;;;;32.77;34.97;100359.53;5021420;28;61831;-60
2023/09/18 16:21:46;;;;;;;;;1.50;1.50;;;;;32.44;34.37;100355.03;5022059;28;45353;-60
2023/09/18 16:24:11;;;;;;;;;1.25;1.25;;;;;32.60;34.21;100379.47;5003370;28;45420;-61
2023/09/18 16:26:37;;;;;;;;;1.75;1.75;;;;;32.83;34.19;100369.78;5022427;28;45330;-61
2023/09/18 16:29:04;;;;;;;;;1.25;1.00;;;;;32.87;33.74;100374.63;5021469;28;45537;-61
2023/09/18 16:31:30;;;;;;;;;0.75;0.75;;;;;33.15;33.58;100365.03;5029001;28;46211;-61
2023/09/18 16:33:56;;;;;;;;;0.75;0.75;;;;;33.24;32.81;100377.59;5029373;28;46722;-62
2023/09/18 16:36:21;;;;;;;;;3.00;1.25;;;;;33.31;33.01;100373.66;5026870;28;45423;-61
2023/09/18 16:38:47;;;;;;;;;1.00;1.00;;;;;33.11;32.84;100364.63;5024867;28;45225;-61
2023/09/18 16:41:12;;;;;;;;;1.75;1.75;;;;;32.90;32.95;100381.69;5013080;28;46534;-61
2023/09/18 16:43:37;;;;;;;;;0.75;0.75;;;;;32.44;34.25;100379.13;5023199;28;45516;-60
2023/09/18 16:46:04;;;;;;;;;1.00;1.00;;;;;32.25;34.49;100380.94;5021668;28;45317;-61
2023/09/18 16:48:30;;;;;;;;;1.00;0.50;;;;;32.17;34.17;100392.28;5021708;28;45385;-62
2023/09/18 16:50:59;;;;;;;;;1.50;1.50;;;;;31.93;35.06;100396.59;5021548;28;47700;-60
2023/09/18 16:53:25;;;;;;;;;2.75;0.75;;;;;31.88;35.00;100390.88;5021421;28;45346;-61
2023/09/18 16:55:50;;;;;;;;;0.50;0.50;;;;;32.22;34.36;100401.66;5021989;28;45431;-61
2023/09/18 16:58:16;;;;;;;;;1.00;1.00;;;;;31.89;35.04;100392.59;5021791;28;45323;-60
2023/09/18 17:00:41;;;;;;;;;1.00;1.00;;;;;31.93;34.86;100396.59;5021249;28;56172;-60
2023/09/18 17:03:06;;;;;;;;;0.25;0.25;;;;;31.43;35.84;100399.00;5021174;28;63270;-61
2023/09/18 17:05:34;;;;;;;;;2.00;2.00;;;;;31.53;36.02;100395.81;5021210;28;45405;-61
2023/09/18 17:08:00;;;;;;;;;1.50;1.50;;;;;31.80;35.48;100400.28;5020238;28;45426;-60
2023/09/18 17:10:25;;;;;;;;;0.50;0.50;;;;;31.58;35.84;100402.41;5013701;28;45377;-60
2023/09/18 17:12:51;;;;;;;;;1.00;1.00;;;;;31.21;36.65;100414.16;5007291;28;45487;-59
2023/09/18 17:15:17;;;;;;;;;2.00;2.00;;;;;31.02;36.81;100420.50;5018418;28;45361;-57
2023/09/18 17:17:43;;;;;;;;;0.50;0.50;;;;;31.10;37.42;100417.56;5019854;28;45554;-57
2023/09/18 17:20:08;;;;;;;;;1.00;1.00;;;;;31.15;36.92;100415.84;5020913;28;46557;-57
2023/09/18 17:22:34;;;;;;;;;1.00;1.00;;;;;31.36;36.63;100425.03;5019613;28;45250;-58
2023/09/18 17:25:00;;;;;;;;;1.50;1.50;;;;;31.40;36.43;100421.59;5020945;28;51882;-57
2023/09/18 17:27:25;;;;;;;;;0.00;0.00;;;;;31.50;36.59;100424.78;5020503;28;45481;-57
2023/09/18 17:29:50;;;;;;;;;1.50;1.00;;;;;31.46;36.21;100434.63;5002677;28;47295;-57
2023/09/18 17:32:16;;;;;;;;;2.00;2.00;;;;;31.23;36.87;100442.47;5001726;28;52997;-57
2023/09/18 17:34:41;;;;;;;;;1.50;1.50;;;;;31.23;37.63;100459.09;5022053;28;45404;-57
2023/09/18 17:37:07;;;;;;;;;0.50;0.50;;;;;31.21;37.46;100483.41;5003310;28;45444;-57
2023/09/18 17:39:32;;;;;;;;;1.00;1.00;;;;;31.04;40.72;100494.00;5002268;28;45471;-56
2023/09/18 17:41:58;;;;;;;;;1.50;1.50;;;;;30.69;42.95;100490.47;5020650;28;45313;-58
2023/09/18 17:44:23;;;;;;;;;0.00;0.00;;;;;30.50;43.59;100513.34;5019126;28;45365;-58
2023/09/18 17:46:48;;;;;;;;;2.00;2.00;;;;;30.42;43.57;100502.44;5019340;28;45566;-58
2023/09/18 17:49:16;;;;;;;;;1.00;1.00;;;;;30.05;45.74;100503.72;5020481;28;54937;-58
2023/09/18 17:51:42;;;;;;;;;1.00;1.00;;;;;29.90;45.29;100491.88;5020540;28;45430;-59
2023/09/18 17:54:08;;;;;;;;;1.00;0.75;;;;;29.89;44.55;100487.41;5017189;28;45273;-57
2023/09/18 17:56:34;;;;;;;;;1.50;1.50;;;;;29.69;44.42;100485.34;5020225;28;45464;-56
2023/09/18 17:59:00;;;;;;;;;1.00;1.00;;;;;29.72;44.46;100487.72;5002879;28;47862;-56
2023/09/18 18:01:25;;;;;;;;;0.75;0.75;;;;;29.74;44.59;100479.22;5014301;28;45344;-57
2023/09/18 18:03:51;;;;;;;;;1.25;1.25;;;;;29.76;44.64;100490.09;5020016;28;45406;-57
2023/09/18 18:06:17;;;;;;;;;3.75;1.25;;;;;29.92;44.23;100495.31;5002475;28;45524;-57
2023/09/18 18:08:42;;;;;;;;;2.00;1.00;;;;;29.84;44.17;100496.31;5020927;28;46291;-57
2023/09/18 18:11:11;;;;;;;;;2.50;2.50;;;;;29.92;42.96;100506.38;4990579;28;45670;-57
2023/09/18 18:13:36;;;;;;;;;2.50;2.50;;;;;29.59;43.24;100503.34;5002789;28;45398;-58
2023/09/18 18:16:03;;;;;;;;;2.00;2.00;;;;;29.57;43.96;100509.06;5014679;28;45717;-58
2023/09/18 18:18:29;;;;;;;;;2.25;1.75;;;;;29.18;44.54;100503.13;5018428;28;46187;-56
2023/09/18 18:20:55;;;;;;;;;2.25;2.25;;;;;29.17;44.59;100515.25;5018026;28;61019;-57
2023/09/18 18:23:21;;;;;;;;;4.25;2.75;;;;;29.37;44.82;100523.75;5019113;28;45519;-54
2023/09/18 18:25:50;;;;;;;;;3.00;3.00;;;;;29.46;44.65;100522.56;5016156;28;45595;-55
2023/09/18 18:28:16;;;;;;;;;3.25;2.00;;;;;29.20;43.84;100525.88;5018236;28;46940;-56
2023/09/18 18:30:41;;;;;;;;;2.50;2.50;;;;;29.05;44.55;100525.94;5018438;28;45386;-56
2023/09/18 18:33:07;;;;;;;;;1.50;1.50;;;;;29.02;44.90;100531.84;5018566;28;45384;-55
2023/09/18 18:35:32;;;;;;;;;1.75;1.75;;;;;29.11;45.05;100544.47;5019497;28;45353;-56
2023/09/18 18:37:57;;;;;;;;;6.00;4.00;;;;;29.16;44.96;100552.19;5018635;28;47047;-58
2023/09/18 18:40:23;;;;;;;;;1.00;1.00;;;;;29.20;44.65;100548.81;5019135;28;45281;-56
2023/09/18 18:42:50;;;;;;;;;3.25;3.25;;;;;29.31;44.37;100552.97;5019706;28;45549;-58
2023/09/18 18:45:17;;;;;;;;;4.00;4.00;;;;;29.08;44.52;100558.69;5017327;28;45875;-58
2023/09/18 18:47:45;;;;;;;;;2.50;2.50;;;;;28.78;45.29;100557.03;5019097;28;46261;-58
2023/09/18 18:50:10;;;;;;;;;2.50;2.50;;;;;28.95;44.71;100561.25;5019002;28;45440;-58
2023/09/18 18:52:36;;;;;;;;;1.50;1.50;;;;;29.04;43.89;100573.06;5018238;28;45469;-57
2023/09/18 18:55:04;;;;;;;;;2.00;2.00;;;;;28.86;44.71;100573.47;5017807;28;45547;-58
2023/09/18 18:57:29;;;;;;;;;2.50;2.50;;;;;28.71;44.70;100572.59;5019346;28;45304;-59
2023/09/18 18:59:54;;;;;;;;;2.50;2.50;;;;;28.85;44.45;100571.75;5019435;28;45424;-59
2023/09/18 19:02:21;;;;;;;;;2.00;2.00;;;;;28.74;44.69;100581.38;5019488;28;45305;-59
2023/09/18 19:04:46;;;;;;;;;4.25;2.75;;;;;28.95;43.79;100586.97;5019361;28;45467;-60
2023/09/18 19:07:13;;;;;;;;;1.75;1.75;;;;;29.09;43.74;100592.66;5019582;28;55713;-57